Aérodrome :
LOGIN :

S'inscrire | Disclaimer

   EN    FR    IT 

 










Légende :    VFR   VFR Marginal   IFR   IFR Intensif   IFR Très Intensif
Visi : 
Plafond : 
>= 8 km
>= 3000ft
5 à 8 km
1000 à 3000 ft
1500m à 5 km
500 à 1000 ft
800 à 1500m
200 à 500 ft
< 800m
< 200 ft
Symboles :   Orages  Brouillard  Fortes neiges  Fortes précipitations  Vent > 20 kt
SIGMETs :   Divers  Orages  Givrage  Turbulence  Onde Orograph.  Cendres Volcan.







- Altitude de l'aérodrome : 1900 ft
- Code IATA : FEZ


GMFF - Fez Saiss

DERNIER METAR :
  • 150500Z 19006KT 9999 FEW020 04/04 Q1029 NOSIG

METARs EXPIRÉS :
  • 150430Z 19006KT 9999 BKN020 05/05 Q1029 NOSIG
  • 150400Z 18005KT 9999 BKN020 05/05 Q1029 NOSIG
  • 150330Z 18005KT 9999 BKN020 07/06 Q1029 NOSIG
  • 150300Z 19005KT 9999 BKN020 08/07 Q1029 NOSIG
  • 150230Z 18006KT 9999 FEW026 07/06 Q1029 NOSIG

TAF TAF GMFF
Valide du 15 à 00h jusqu'au 16 à 06h UTC


142300Z 1500/1606 18005KT CAVOK BEMG 1510/1514 06010KT FEW026 BECM 1517/1520 18004KT CAVOK
Pas de NOTAMs connus pour ce terrain.



MET'MAP, la Météo Aéronautique d'un coup d'oeil ! - Copyright ORBIFLY Décembre 2007 - Disclaimer

ORBIFLY MET'MAP TEAM :

Programmation & Développement : Alexandra Zaïnal
Conception & Développement : Baudouin d'Aumeries
Co-Programmation & Développement : Marc-Olivier Méhu
Soutien technique & logistique : Manuel Goepfert

Contact : metmap@orbifly.com




SOURCES & CREDITS :

   NOAA